Data for 07/30/2007

Time Sea-Level Adjusted Pressure Absolute Pressure Temperature Relative Humidity Dew Point   
(mb) (inHg) (mb) (inHg) (C) (F) (%) (C) (F)
00:05 1017 30.03 846 24.98 22.7 72.9 28 3.5 38.3
00:10 1017 30.03 846 24.98 22.7 72.8 28 3.4 38.2
00:15 1017 30.03 846 24.98 22.6 72.6 29 3.6 38.5
00:20 1017 30.03 846 24.98 22.4 72.4 28 3.5 38.3
00:25 1017 30.03 846 24.98 22.5 72.5 29 3.7 38.6
00:30 1017 30.03 846 24.98 22.5 72.4 29 3.8 38.9
00:35 1017 30.03 846 24.98 22.4 72.4 29 3.6 38.6
00:40 1017 30.03 846 24.98 22.4 72.4 28 3.5 38.2
00:45 1017 30.03 846 24.98 22.6 72.6 28 3.5 38.2
00:50 1017 30.03 846 24.98 22.7 72.8 28 3.5 38.4
00:55 1017 30.03 846 24.98 22.5 72.4 29 3.7 38.7
01:00 1017 30.03 846 24.98 22.3 72.1 30 3.9 39
01:05 1017 30.03 846 24.98 22.2 71.9 30 3.8 38.9
01:10 1017 30.03 846 24.98 22.3 72.1 34 5.6 42.1
01:15 1017 30.03 846 24.98 22.5 72.6 29 3.8 38.8
01:20 1017 30.03 846 24.98 22.5 72.6 29 3.8 38.8
01:25 1017 30.03 846 24.98 22.6 72.7 29 3.7 38.6
01:30 1017 30.03 846 24.98 22.8 73 28 3.8 38.8
01:35 1017 30.03 846 24.98 22.8 73.1 28 3.8 38.8
01:40 1017 30.03 846 24.98 22.8 73.1 28 3.7 38.6
01:45 1017 30.03 846 24.98 22.8 73 29 4 39.2
01:50 1017 30.03 846 24.98 22.7 72.8 29 4.1 39.4
01:55 1017 30.03 846 24.98 22.6 72.6 29 3.9 39
02:00 1017 30.03 846 24.98 22.7 72.9 29 3.8 38.9
02:05 1017 30.03 846 24.98 22.7 72.8 30 4.2 39.6
02:10 1017 30.03 846 24.98 22 71.6 34 5.8 42.4
02:15 1017 30.03 846 24.98 21.8 71.2 32 4.4 40
02:20 1017 30.03 846 24.98 21.2 70.1 32 3.9 39.1
02:25 1017 30.03 846 24.98 21.5 70.6 31 3.7 38.6
02:30 1017 30.03 846 24.98 21.6 70.9 31 4 39.2
02:35 1017 30.03 846 24.98 21.6 70.9 31 4.1 39.4
02:40 1017 30.03 846 24.98 21.7 71 31 4.1 39.4
02:45 1017 30.03 846 24.98 21.5 70.6 32 4.1 39.4
02:50 1017 30.03 846 24.98 21.6 70.8 30 3.6 38.5
02:55 1017 30.03 846 24.98 22.1 71.8 29 3.4 38.1
03:00 1017 30.03 846 24.98 22.3 72.2 29 3.7 38.7
03:05 1017 30.03 846 24.98 22.5 72.4 28 3.4 38.1
03:10 1017 30.03 846 24.98 22.5 72.6 29 4 39.2
03:15 1017 30.03 846 24.98 21.6 71 32 4.5 40.1
03:20 1017 30.03 846 24.98 20.7 69.2 33 4.2 39.5
03:25 1017 30.03 846 24.98 20.5 68.9 33 3.9 39
03:30 1017 30.03 846 24.98 20.3 68.6 33 3.9 39
03:35 1017 30.03 846 24.98 20.4 68.8 33 3.9 39
03:40 1017 30.03 846 24.98 20.5 68.9 33 4.1 39.3
03:45 1017 30.03 846 24.98 20.7 69.2 33 4 39.2
03:50 1017 30.03 846 24.98 20.8 69.5 32 3.8 38.8
03:55 1017 30.03 846 24.98 21 69.7 32 4 39.3
04:00 1017 30.03 846 24.98 20.7 69.3 34 4.3 39.7
04:05 1017 30.03 846 24.98 20.4 68.8 34 4.4 39.9
04:10 1017 30.03 846 24.98 20.5 68.8 33 4 39.2
04:15 1017 30.03 846 24.98 20.7 69.2 33 4.2 39.6
04:20 1017 30.03 846 24.98 20.9 69.6 33 4.1 39.4
04:25 1017 30.03 846 24.98 20.7 69.3 33 4.1 39.4
04:30 1017 30.03 846 24.98 20.6 69 33 4.1 39.3
04:35 1017 30.03 846 24.98 20.6 69.2 33 3.9 38.9
04:40 1017 30.03 846 24.98 20.8 69.5 32 3.8 38.9
04:45 1017 30.03 846 24.98 20.8 69.4 33 4.1 39.4
04:50 1017 30.03 846 24.98 20.3 68.5 34 4.1 39.3
04:55 1017 30.03 846 24.98 20 67.9 35 4.1 39.3
05:00 1017 30.03 846 24.98 20 68.1 34 3.9 39.1
05:05 1017 30.03 846 24.98 20.4 68.6 34 4 39.1
05:10 1017 30.03 846 24.98 20.7 69.2 33 3.9 39
05:15 1017 30.03 846 24.98 20.9 69.6 33 4 39.3
05:20 1017 30.03 846 24.98 21 69.7 33 4.1 39.4
05:25 1017 30.03 846 24.98 20.9 69.6 33 4.2 39.5
05:30 1017 30.03 846 24.98 20.7 69.3 34 4.2 39.6
05:35 1017 30.03 846 24.98 20.2 68.4 35 4.3 39.7
05:40 1017 30.03 846 24.98 20 68 35 4.1 39.3
05:45 1017 30.03 846 24.98 20.2 68.4 34 4.1 39.4
05:50 1017 30.03 846 24.98 20.4 68.7 34 4.1 39.3
05:55 1017 30.03 846 24.98 20.3 68.6 34 4.3 39.8
06:00 1017 30.03 846 24.98 20 67.9 36 4.4 39.9
06:05 1017 30.03 846 24.98 19.5 67.2 37 4.5 40.2
06:10 1017 30.03 846 24.98 19.4 66.9 37 4.6 40.2
06:15 1017 30.03 846 24.98 19.2 66.5 38 4.8 40.7
06:20 1017 30.03 846 24.98 19.3 66.7 36 3.9 39.1
06:25 1017 30.03 846 24.98 20 68 37 4.9 40.8
06:30 1017 30.03 846 24.98 19.9 67.9 34 3.7 38.7
06:35 1017 30.03 846 24.98 20 67.9 34 3.6 38.6
06:40 1017 30.03 846 24.98 20 68 35 4.2 39.5
06:45 1017 30.03 846 24.98 19.6 67.3 38 5.2 41.4
06:50 1017 30.03 846 24.98 19.1 66.4 39 4.8 40.7
06:55 1017 30.03 846 24.98 19.2 66.5 38 4.7 40.4
07:00 1017 30.03 846 24.98 19.3 66.8 38 4.7 40.4
07:05 1017 30.03 846 24.98 19.3 66.7 38 4.9 40.9
07:10 1017 30.03 846 24.98 19.3 66.8 38 4.9 40.8
07:15 1017 30.03 846 24.98 19.7 67.4 38 5 40.9
07:20 1017 30.03 846 24.98 20.2 68.4 35 4.4 39.9
07:25 1017 30.03 846 24.98 20.6 69.1 35 4.6 40.3
07:30 1017 30.03 846 24.98 20.7 69.2 35 5 41
07:35 1017 30.03 846 24.98 20.8 69.5 35 5 41.1
07:40 1017 30.03 846 24.98 21 69.9 34 4.9 40.8
07:45 1017 30.03 846 24.98 21.4 70.5 39 6.9 44.4
07:50 1017 30.03 846 24.98 21.8 71.2 35 5.7 42.2
07:55 1017 30.03 846 24.98 22.2 72 34 6 42.8
08:00 1017 30.03 846 24.98 22.2 72 35 6.4 43.4
08:05 1017 30.03 846 24.98 22.2 71.9 35 6 42.8
08:10 1017 30.03 846 24.98 22.4 72.3 35 6.3 43.4
08:15 1017 30.03 846 24.98 22.6 72.7 34 6.2 43.1
08:20 1017 30.03 846 24.98 22.8 73 34 6.5 43.6
08:25 1017 30.03 846 24.98 23 73.4 32 5.8 42.4
08:30 1017 30.03 846 24.98 23.2 73.8 35 7 44.6
08:35 1017 30.03 846 24.98 23.5 74.2 35 7.5 45.5
08:40 1017 30.03 846 24.98 23.6 74.5 33 6.7 44.1
08:45 1017 30.03 846 24.98 23.9 75 33 6.7 44
08:50 1017 30.03 846 24.98 24.2 75.6 33 7.3 45.1
08:55 1017 30.03 846 24.98 24.9 76.9 31 7.1 44.8
09:00 1017 30.03 846 24.98 25.8 78.4 30 7.3 45.2
09:05 1017 30.03 846 24.98 25.6 78.1 30 7.1 44.8
09:10 1017 30.03 846 24.98 26 78.8 30 7.3 45.1
09:15 1017 30.03 846 24.98 26.7 80 27 6.2 43.2
09:20 1017 30.03 846 24.98 26.9 80.5 26 6.2 43.2
09:25 1017 30.03 846 24.98 27.4 81.4 25 6 42.8
09:30 1017 30.03 846 24.98 27.8 82 26 6.7 44
09:35 1017 30.03 846 24.98 28.1 82.6 26 6.9 44.4
09:40 1017 30.03 846 24.98 28 82.4 27 7.4 45.4
09:45 1017 30.03 846 24.98 28.4 83 27 7.8 46
09:50 1017 30.03 846 24.98 28.7 83.6 27 8.2 46.7
09:55 1017 30.03 846 24.98 28.9 84.1 28 8.9 47.9
10:00 1017 30.03 846 24.98 29.1 84.5 28 9.1 48.3
10:05 1017 30.03 846 24.98 29.9 85.8 25 7.8 46.1
10:10 1017 30.03 846 24.98 30 86 26 8.7 47.7
10:15 1017 30.03 846 24.98 29.9 85.9 24 7.7 45.8
10:20 1017 30.03 846 24.98 29.9 85.8 26 8.5 47.3
10:25 1017 30.03 846 24.98 30 86.1 25 7.9 46.3
10:30 1017 30.03 846 24.98 29.6 85.2 26 8.1 46.6
10:35 1017 30.03 846 24.98 29.1 84.3 26 8.2 46.7
10:40 1017 30.03 846 24.98 28.9 84.1 26 7.8 46
10:45 1017 30.03 846 24.98 29.2 84.5 25 7.6 45.7
10:50 1017 30.03 846 24.98 30.2 86.4 23 7.1 44.8
10:55 1017 30.03 846 24.98 31.1 88 23 7.6 45.7
11:00 1017 30.03 846 24.98 30.9 87.6 22 7.4 45.3
11:05 1017 30.03 846 24.98 31.2 88.1 22 7.5 45.5
11:10 1017 30.03 846 24.98 31.4 88.4 21 6.9 44.5
11:15 1017 30.03 846 24.98 31.3 88.4 21 7 44.6
11:20 1017 30.03 846 24.98 31.4 88.5 21 6.8 44.2
11:25 1017 30.03 846 24.98 32.3 90.2 21 7.4 45.4
11:30 1017 30.03 846 24.98 32.8 91 21 8.2 46.8
11:35 1016 30 846 24.98 31.6 88.8 22 7.9 46.2
11:40 1016 30 846 24.98 32 89.6 20 6.8 44.3
11:45 1016 30 846 24.98 32.1 89.7 20 6.6 43.8
11:50 1016 30 846 24.98 31.5 88.8 20 6.2 43.1
11:55 1016 30 846 24.98 32.4 90.3 20 6.9 44.4
12:00 1016 30 845 24.95 32.8 91.1 20 7.5 45.5
12:05 1016 30 845 24.95 32.9 91.3 17 5.1 41.2
12:10 1016 30 845 24.95 33 91.4 19 6.8 44.2
12:15 1016 30 845 24.95 33.1 91.5 18 6.3 43.4
12:20 1016 30 845 24.95 33.4 92.2 18 6.6 43.9
12:25 1016 30 845 24.95 33.4 92.1 18 6.6 43.9
12:30 1016 30 845 24.95 33.1 91.6 20 7.8 46
12:35 1016 30 845 24.95 33.3 91.9 21 8.1 46.5
12:40 1016 30 845 24.95 33 91.3 22 8.8 47.8
12:45 1016 30 845 24.95 32 89.6 22 8 46.4
12:50 1016 30 845 24.95 31 87.9 22 7.4 45.4
12:55 1016 30 845 24.95 30.4 86.7 22 6.4 43.5
13:00 1016 30 845 24.95 30.3 86.5 22 6.4 43.6
13:05 1016 30 846 24.98 30 86 22 6.6 43.9
13:10 1017 30.03 846 24.98 29.9 85.9 22 6.1 43
13:15 1017 30.03 846 24.98 29.9 85.7 22 6.4 43.5
13:20 1016 30 846 24.98 30 85.9 21 5.3 41.6
13:25 1016 30 846 24.98 30.3 86.5 21 5.7 42.2
13:30 1016 30 846 24.98 30.5 86.9 17 3.1 37.7
13:35 1016 30 846 24.98 30.6 87.1 17 2.8 37
13:40 1016 30 846 24.98 30.7 87.2 20 5.6 42.1
13:45 1017 30.03 846 24.98 31 87.7 15 1.9 35.5
13:50 1017 30.03 846 24.98 30.1 86.2 27 9.7 49.4
13:55 1017 30.03 846 24.98 28.8 83.8 27 8.2 46.7
14:00 1017 30.03 846 24.98 28.4 83.1 28 8.2 46.8
14:05 1017 30.03 846 24.98 28.1 82.5 26 7.3 45.1
14:10 1017 30.03 846 24.98 27.6 81.7 28 7.8 46.1
14:15 1017 30.03 846 24.98 27.6 81.7 26 6.6 44
14:20 1017 30.03 846 24.98 27.9 82.2 26 6.7 44
14:25 1017 30.03 846 24.98 27.8 82 26 6.7 44
14:30 1017 30.03 846 24.98 28 82.3 23 5.3 41.6
14:35 1017 30.03 846 24.98 28.3 82.9 26 7.1 44.8
14:40 1017 30.03 846 24.98 29.1 84.3 20 4 39.1
14:45 1017 30.03 846 24.98 30.1 86.2 17 2.8 37
14:50 1017 30.03 846 24.98 31.1 88 16 2.9 37.2
14:55 1017 30.03 846 24.98 31.6 88.9 15 1.9 35.4
15:00 1017 30.03 846 24.98 31.8 89.2 16 3.4 38.1
15:05 1017 30.03 846 24.98 31.6 88.8 16 2.9 37.2
15:10 1017 30.03 846 24.98 31.8 89.2 15 2.1 35.8
15:15 1017 30.03 846 24.98 32 89.6 16 3.4 38.2
15:20 1017 30.03 846 24.98 31.7 89 19 5.9 42.7
15:25 1017 30.03 846 24.98 31.5 88.6 19 5.7 42.3
15:30 1017 30.03 846 24.98 31.2 88.2 19 5.1 41.2
15:35 1017 30.03 846 24.98 30.9 87.6 22 7 44.6
15:40 1017 30.03 846 24.98 30.4 86.8 23 7.4 45.3
15:45 1017 30.03 846 24.98 30.4 86.6 22 6.5 43.7
15:50 1017 30.03 846 24.98 30.1 86.2 21 5.6 42.1
15:55 1017 30.03 846 24.98 30.3 86.6 18 3.8 38.9
16:00 1017 30.03 846 24.98 30.2 86.4 20 5.4 41.7
16:05 1017 30.03 846 24.98 30.2 86.3 18 4 39.1
16:10 1016 30 846 24.98 30.2 86.4 20 5.2 41.4
16:15 1016 30 845 24.95 30.1 86.1 20 4.7 40.5
16:20 1016 30 845 24.95 30 86 20 5 41.1
16:25 1016 30 845 24.95 30.2 86.3 23 7.1 44.9
16:30 1016 30 845 24.95 30 85.9 23 6.6 43.9
16:35 1016 30 845 24.95 30 86.1 21 6 42.8
16:40 1015 29.97 844 24.92 30.3 86.5 20 5.3 41.5
16:45 1015 29.97 845 24.95 30.2 86.4 20 5.4 41.7
16:50 1015 29.97 845 24.95 30.2 86.3 23 7 44.6
16:55 1015 29.97 845 24.95 30.2 86.4 22 6.6 43.8
17:00 1015 29.97 845 24.95 30.8 87.4 19 4.8 40.7
17:05 1015 29.97 845 24.95 31.6 88.8 16 3.4 38.1
17:10 1015 29.97 845 24.95 32.1 89.8 15 3 37.3
17:15 1016 30 845 24.95 32.6 90.7 16 3.6 38.4
17:20 1016 30 845 24.95 32.1 89.8 19 5.8 42.5
17:25 1016 30 845 24.95 31.8 89.2 21 7.4 45.3
17:30 1016 30 845 24.95 32.6 90.8 16 4.3 39.8
17:35 1016 30 845 24.95 32.7 90.9 18 6 42.8
17:40 1016 30 845 24.95 31.4 88.5 22 7.4 45.4
17:45 1016 30 846 24.98 29.8 85.6 24 7.7 45.8
17:50 1016 30 846 24.98 28.9 84.1 26 7.6 45.7
17:55 1017 30.03 846 24.98 28.8 83.8 26 7.6 45.6
18:00 1017 30.03 846 24.98 28.7 83.7 25 7.1 44.8
18:05 1017 30.03 846 24.98 28.8 83.8 24 6.4 43.5
18:10 1017 30.03 846 24.98 28.9 84 24 6.7 44
18:15 1017 30.03 846 24.98 28.8 83.8 24 6.4 43.5
18:20 1017 30.03 846 24.98 28.8 83.8 23 6.2 43.2
18:25 1017 30.03 846 24.98 28.8 83.8 24 6.6 43.8
18:30 1017 30.03 846 24.98 28.7 83.6 24 6.3 43.3
18:35 1017 30.03 846 24.98 28.6 83.4 26 7.3 45.1
18:40 1017 30.03 846 24.98 28 82.4 27 7.8 46
18:45 1017 30.03 846 24.98 27.5 81.6 27 7.2 45
18:50 1017 30.03 846 24.98 27.6 81.6 25 6.1 43
18:55 1017 30.03 846 24.98 27.9 82.2 25 6.5 43.6
19:00 1017 30.03 846 24.98 28.1 82.5 24 5.8 42.5
19:05 1016 30 845 24.95 28 82.5 24 5.9 42.7
19:10 1016 30 845 24.95 28.2 82.8 23 5.5 42
19:15 1016 30 845 24.95 28.3 83 22 4.7 40.4
19:20 1016 30 845 24.95 28.6 83.5 21 4.7 40.4
19:25 1016 30 845 24.95 28.7 83.7 23 6 42.9
19:30 1016 30 845 24.95 28.3 82.9 26 7.1 44.8
19:35 1016 30 845 24.95 27.8 82 25 6 42.8
19:40 1016 30 845 24.95 27.7 81.8 26 6.9 44.5
19:45 1016 30 845 24.95 27.5 81.6 27 7.1 44.8
19:50 1016 30 845 24.95 27.6 81.6 26 6.4 43.5
19:55 1016 30 845 24.95 27.8 82.1 24 5.9 42.6
20:00 1016 30 845 24.95 27.4 81.3 29 7.9 46.2
20:05 1016 30 845 24.95 26.5 79.7 29 7.3 45.2
20:10 1016 30 845 24.95 26.4 79.6 30 7.5 45.5
20:15 1016 30 845 24.95 26.6 79.8 28 6.8 44.2
20:20 1016 30 845 24.95 26.8 80.2 28 7.1 44.7
20:25 1016 30 845 24.95 27 80.6 25 5.7 42.2
20:30 1016 30 845 24.95 27.2 80.9 28 7.3 45.1
20:35 1016 30 845 24.95 26.5 79.7 29 7.1 44.7
20:40 1016 30 845 24.95 26.4 79.5 27 6.2 43.1
20:45 1016 30 845 24.95 26.5 79.6 28 6.8 44.3
20:50 1016 30 845 24.95 26.2 79.2 29 7.2 45
20:55 1016 30 846 24.98 25.8 78.4 31 7.6 45.7
21:00 1016 30 846 24.98 25.4 77.6 34 8.6 47.5
21:05 1016 30 846 24.98 25.2 77.4 34 8.3 46.9
21:10 1016 30 846 24.98 25 77 33 7.7 45.9
21:15 1016 30 846 24.98 24.7 76.5 33 7.7 45.9
21:20 1017 30.03 846 24.98 24.7 76.5 32 7.3 45.2
21:25 1017 30.03 846 24.98 24.8 76.6 37 9.4 48.9
21:30 1017 30.03 846 24.98 24.9 76.8 32 7.4 45.3
21:35 1017 30.03 846 24.98 24.8 76.6 34 8.1 46.5
21:40 1017 30.03 846 24.98 24.5 76.1 35 8.4 47.1
21:45 1017 30.03 846 24.98 24.2 75.5 35 7.8 46.1
21:50 1017 30.03 846 24.98 23.7 74.7 36 7.9 46.2
21:55 1018 30.06 847 25.01 23.6 74.5 35 7.4 45.2
22:00 1018 30.06 847 25.01 23.3 73.9 35 7.4 45.3
22:05 1018 30.06 847 25.01 23.1 73.6 37 7.9 46.2
22:10 1018 30.06 847 25.01 22.8 73.1 36 7.1 44.8
22:15 1018 30.06 847 25.01 23 73.5 35 6.8 44.3
22:20 1018 30.06 847 25.01 23.2 73.8 35 7.1 44.7
22:25 1018 30.06 847 25.01 23.4 74.1 35 7.2 45
22:30 1018 30.06 847 25.01 23.7 74.6 35 7.5 45.4
22:35 1018 30.06 848 25.04 23.8 74.8 34 7.3 45.1
22:40 1018 30.06 848 25.04 23.9 75 35 7.8 46
22:45 1019 30.09 848 25.04 23.3 73.9 35 7.4 45.3
22:50 1019 30.09 848 25.04 23.8 74.8 33 6.7 44
22:55 1019 30.09 848 25.04 24.4 75.8 33 7.1 44.7
23:00 1018 30.06 848 25.04 24.4 75.9 33 7.2 45
23:05 1018 30.06 848 25.04 24.4 75.9 32 7 44.5
23:10 1018 30.06 848 25.04 24.4 75.8 33 7.1 44.7
23:15 1019 30.09 848 25.04 24.3 75.7 35 8.1 46.6
23:20 1019 30.09 848 25.04 23.8 74.8 39 9.3 48.8
23:25 1019 30.09 848 25.04 23.5 74.3 39 8.9 48
23:30 1019 30.09 848 25.04 24 75.2 37 8.8 47.8
23:35 1019 30.09 848 25.04 24.3 75.8 36 8.3 47
23:40 1018 30.06 848 25.04 24.7 76.5 31 6.5 43.7
23:45 1018 30.06 847 25.01 24.9 76.8 30 6.6 43.8
23:50 1018 30.06 847 25.01 25.1 77.1 33 8 46.4
23:55 1018 30.06 847 25.01 24.9 76.7 33 7.8 46
24:00 1018 30.06 847 25.01 23.8 74.9 35 7.6 45.7